Main page
METAR-TAF:

METAR-TAF

Airports :

Passo della Cisa, Italy

latitude: 44-26N, longitude: 009-56E, elevation: 1039 m

Current weather observation

The report was made 10 hours and 48 minutes ago, at 15:55 UTC
Wind 8 kt from the North/Northeast
Temperature 21°C
Humidity 38%
Pressure 1007 hPa
Visibility 10 km or more
Scattered clouds at a height of 1500 ft
Few clouds at a height of 1700 ft, Towering cumulus.

METAR: LIMT 251555Z 03008KT 9999 SCT015 FEW017TCU 21/06 Q1007 RMK SCT MON LIB VAL NIL VIS MIN 9999

Time: 04:43 (02:43 UTC)


TAF: missing

Weather observations and forecasts of more than 4000 airports (METAR and TAF reports).

The available stations are represented by yellow and red dots on the map.

Hover mouse over dot to see the name of the station.

Then click to see weather observations and forecasts.

To change the map : click on the green buttons with a black cross to zoom in, on the green button with a dash to zoom out, or on the green arrows for adjacent maps.


METAR-TAF: